Accueil
METAR-TAF:

METAR-TAF

Aéroports :

Bogotá, Colombie

Aéroport international El Dorado

latitude: 04-43N, longitude: 074-09W, altitude: 2547 m

Observation

Le bulletin a été fait il y a 46 minutes, à 09:00 UTC
Vent 2 kt de direction variable
Température 4°C
Humidité 93%
Pression 1024 hPa
Visibilité 10 km ou plus

METAR: SKBO 240900Z VRB02KT 9999 NSC 04/03 A3025

Heure: 04:46 (09:46 UTC)

Prévision

Le bulletin a été fait il y a 4 heures et 46 minutes, à 05:00 UTC
Prévision valable du 24 à 06 UTC au 25 à 06 UTC
Vent 5 kt de nord-est
Quelques nuages à une hauteur de 2300 ft
Temporairement
du 24 à 09 UTC au 24 à 12 UTC
Visibilité: 8000 m
Nuages épars à une hauteur de 1500 ft
Brouillard mince

TAF: SKBO 240500Z 2406/2506 05005KT 9999T FEW023 TEMPO 2409/2412 8000 MIFG SCT015 TX21/2418Z TN05/2411Z

Observations et prévisions météorologiques de plus de 4000 aéroports (messages METAR et TAF).

Les stations disponibles sont représentées par des disques jaunes et rouges sur la carte.

Passer la souris dessus pour voir le nom de la station.

Cliquer dessus pour voir les observations et prévisions météorologiques.

Pour changer de carte: cliquez sur les boutons verts avec une croix noire pour zoomer, sur le bouton vert avec un tiret pour effectuer un zoom arrière, ou sur les flèches vertes pour les cartes adjacentes.


METAR-TAF: